Weather at San Fernando Airport [CLOSED]

Public forecast

Using degrees Fahrenheit for public forecast. Weather courtesy of forecast.io.

Closest aviation weather report (METAR) to San Fernando Airport

Closest report is Whiteman Airport, 1.8 nm (3.4 km) SSE. Retrieved 2022/01/17 02:50 UTC (36 minutes ago):

KWHP 170250Z 00000KT 10SM SCT050 OVC070 18/00 A3008

Closest aviation forecast (TAF) to San Fernando Airport

Closest forecast is Van Nuys Airport, 5.8 nm (10.8 km) SW. Retrieved 2022-01-17 00:45 UTC (3 hours ago):

TAF KVNY 162342Z 1700/1724 15006KT P6SM BKN080 FM170300 VRB03KT P6SM BKN080 FM171400 VRB03KT P6SM BKN040 FM172100 15006KT P6SM BKN040 PROB30 1721/1724 -SHRA